sensor_id;sensor_type;location;lat;lon;timestamp;P1;durP1;ratioP1;P2;durP2;ratioP2
34535;SDS011;20779;55.596;37.538;2022-08-19T00:01:47;12.02;;;4.35;;
34535;SDS011;20779;55.596;37.538;2022-08-19T00:04:16;7.72;;;3.80;;
34535;SDS011;20779;55.596;37.538;2022-08-19T00:06:45;9.88;;;4.22;;
34535;SDS011;20779;55.596;37.538;2022-08-19T00:09:13;9.60;;;3.30;;
34535;SDS011;20779;55.596;37.538;2022-08-19T00:11:42;9.48;;;3.88;;
34535;SDS011;20779;55.596;37.538;2022-08-19T00:14:10;10.07;;;3.75;;
34535;SDS011;20779;55.596;37.538;2022-08-19T00:16:38;7.03;;;3.25;;
34535;SDS011;20779;55.596;37.538;2022-08-19T00:19:06;7.75;;;3.90;;
34535;SDS011;20779;55.596;37.538;2022-08-19T00:21:34;10.45;;;4.10;;
34535;SDS011;20779;55.596;37.538;2022-08-19T00:24:08;7.00;;;3.93;;
34535;SDS011;20779;55.596;37.538;2022-08-19T00:26:36;10.38;;;3.85;;
34535;SDS011;20779;55.596;37.538;2022-08-19T00:29:03;12.60;;;4.15;;
34535;SDS011;20779;55.596;37.538;2022-08-19T00:31:31;7.93;;;3.83;;
34535;SDS011;20779;55.596;37.538;2022-08-19T00:33:58;9.25;;;3.88;;
34535;SDS011;20779;55.596;37.538;2022-08-19T00:36:25;12.60;;;3.90;;
34535;SDS011;20779;55.596;37.538;2022-08-19T00:38:53;11.20;;;4.95;;
34535;SDS011;20779;55.596;37.538;2022-08-19T00:41:20;10.93;;;4.03;;
34535;SDS011;20779;55.596;37.538;2022-08-19T00:44:09;8.05;;;3.90;;
34535;SDS011;20779;55.596;37.538;2022-08-19T00:46:48;9.07;;;4.35;;
34535;SDS011;20779;55.596;37.538;2022-08-19T00:52:12;14.60;;;4.32;;
34535;SDS011;20779;55.596;37.538;2022-08-19T00:54:47;10.93;;;5.03;;
34535;SDS011;20779;55.596;37.538;2022-08-19T00:57:15;8.13;;;4.35;;
34535;SDS011;20779;55.596;37.538;2022-08-19T00:59:44;9.35;;;4.55;;
34535;SDS011;20779;55.596;37.538;2022-08-19T01:02:14;10.02;;;4.50;;
34535;SDS011;20779;55.596;37.538;2022-08-19T01:04:41;14.05;;;5.45;;
34535;SDS011;20779;55.596;37.538;2022-08-19T01:07:08;10.05;;;4.50;;
34535;SDS011;20779;55.596;37.538;2022-08-19T01:09:34;9.63;;;4.53;;
34535;SDS011;20779;55.596;37.538;2022-08-19T01:12:01;9.43;;;4.60;;
34535;SDS011;20779;55.596;37.538;2022-08-19T01:14:28;12.68;;;4.70;;
34535;SDS011;20779;55.596;37.538;2022-08-19T01:16:55;8.75;;;4.50;;
34535;SDS011;20779;55.596;37.538;2022-08-19T01:21:51;7.68;;;4.00;;
34535;SDS011;20779;55.596;37.538;2022-08-19T01:24:26;8.35;;;4.45;;
34535;SDS011;20779;55.596;37.538;2022-08-19T01:26:53;13.77;;;4.97;;
34535;SDS011;20779;55.596;37.538;2022-08-19T01:29:20;13.77;;;4.18;;
34535;SDS011;20779;55.596;37.538;2022-08-19T01:31:46;11.98;;;3.55;;
34535;SDS011;20779;55.596;37.538;2022-08-19T01:34:17;8.93;;;3.58;;
34535;SDS011;20779;55.596;37.538;2022-08-19T01:36:45;6.97;;;3.47;;
34535;SDS011;20779;55.596;37.538;2022-08-19T01:39:19;7.30;;;3.40;;
34535;SDS011;20779;55.596;37.538;2022-08-19T01:41:50;17.10;;;3.97;;
34535;SDS011;20779;55.596;37.538;2022-08-19T01:44:20;8.05;;;3.40;;
34535;SDS011;20779;55.596;37.538;2022-08-19T01:46:50;7.90;;;3.45;;
34535;SDS011;20779;55.596;37.538;2022-08-19T01:49:18;9.30;;;3.50;;
34535;SDS011;20779;55.596;37.538;2022-08-19T01:51:47;8.48;;;3.30;;
34535;SDS011;20779;55.596;37.538;2022-08-19T01:54:15;7.28;;;4.07;;
34535;SDS011;20779;55.596;37.538;2022-08-19T01:56:42;9.70;;;3.60;;
34535;SDS011;20779;55.596;37.538;2022-08-19T01:59:13;11.00;;;3.95;;
34535;SDS011;20779;55.596;37.538;2022-08-19T02:01:43;11.50;;;3.90;;
34535;SDS011;20779;55.596;37.538;2022-08-19T02:04:10;6.80;;;3.53;;
34535;SDS011;20779;55.596;37.538;2022-08-19T02:06:36;10.43;;;3.65;;
34535;SDS011;20779;55.596;37.538;2022-08-19T02:09:04;10.50;;;3.65;;
34535;SDS011;20779;55.596;37.538;2022-08-19T02:11:33;13.60;;;3.70;;
34535;SDS011;20779;55.596;37.538;2022-08-19T02:14:02;7.10;;;3.50;;
34535;SDS011;20779;55.596;37.538;2022-08-19T02:16:32;7.38;;;2.92;;
34535;SDS011;20779;55.596;37.538;2022-08-19T02:18:58;13.10;;;3.30;;
34535;SDS011;20779;55.596;37.538;2022-08-19T02:21:28;4.63;;;2.58;;
34535;SDS011;20779;55.596;37.538;2022-08-19T02:23:55;8.38;;;3.17;;
34535;SDS011;20779;55.596;37.538;2022-08-19T02:26:22;11.35;;;3.22;;
34535;SDS011;20779;55.596;37.538;2022-08-19T02:28:48;11.13;;;2.90;;
34535;SDS011;20779;55.596;37.538;2022-08-19T02:31:17;13.68;;;3.35;;
34535;SDS011;20779;55.596;37.538;2022-08-19T02:33:46;11.48;;;3.92;;
34535;SDS011;20779;55.596;37.538;2022-08-19T02:36:14;11.18;;;3.28;;
34535;SDS011;20779;55.596;37.538;2022-08-19T02:38:42;6.35;;;2.63;;
34535;SDS011;20779;55.596;37.538;2022-08-19T02:41:20;9.32;;;2.95;;
34535;SDS011;20779;55.596;37.538;2022-08-19T02:44:00;6.22;;;3.00;;
34535;SDS011;20779;55.596;37.538;2022-08-19T02:46:30;7.88;;;2.40;;
34535;SDS011;20779;55.596;37.538;2022-08-19T02:48:59;8.35;;;3.05;;
34535;SDS011;20779;55.596;37.538;2022-08-19T02:51:31;9.48;;;3.65;;
34535;SDS011;20779;55.596;37.538;2022-08-19T02:54:03;6.90;;;2.78;;
34535;SDS011;20779;55.596;37.538;2022-08-19T02:56:33;8.13;;;2.70;;
34535;SDS011;20779;55.596;37.538;2022-08-19T02:59:01;6.65;;;2.83;;
34535;SDS011;20779;55.596;37.538;2022-08-19T03:01:31;8.10;;;3.17;;
34535;SDS011;20779;55.596;37.538;2022-08-19T03:03:58;11.80;;;3.20;;
34535;SDS011;20779;55.596;37.538;2022-08-19T03:06:29;8.25;;;3.10;;
34535;SDS011;20779;55.596;37.538;2022-08-19T03:08:56;8.85;;;2.90;;
34535;SDS011;20779;55.596;37.538;2022-08-19T03:11:29;10.90;;;3.00;;
34535;SDS011;20779;55.596;37.538;2022-08-19T03:13:57;6.95;;;2.80;;
34535;SDS011;20779;55.596;37.538;2022-08-19T03:16:26;9.98;;;3.10;;
34535;SDS011;20779;55.596;37.538;2022-08-19T03:18:55;8.68;;;2.88;;
34535;SDS011;20779;55.596;37.538;2022-08-19T03:21:26;11.18;;;3.15;;
34535;SDS011;20779;55.596;37.538;2022-08-19T03:23:56;10.35;;;3.35;;
34535;SDS011;20779;55.596;37.538;2022-08-19T03:26:26;8.15;;;3.53;;
34535;SDS011;20779;55.596;37.538;2022-08-19T03:28:53;8.90;;;3.22;;
34535;SDS011;20779;55.596;37.538;2022-08-19T03:31:20;8.52;;;2.83;;
34535;SDS011;20779;55.596;37.538;2022-08-19T03:33:48;12.73;;;3.30;;
34535;SDS011;20779;55.596;37.538;2022-08-19T03:36:17;5.90;;;2.97;;
34535;SDS011;20779;55.596;37.538;2022-08-19T03:38:51;11.85;;;3.33;;
34535;SDS011;20779;55.596;37.538;2022-08-19T03:41:26;9.63;;;3.53;;
34535;SDS011;20779;55.596;37.538;2022-08-19T03:44:04;8.05;;;3.30;;
34535;SDS011;20779;55.596;37.538;2022-08-19T03:46:31;10.45;;;3.97;;
34535;SDS011;20779;55.596;37.538;2022-08-19T03:48:59;9.75;;;3.60;;
34535;SDS011;20779;55.596;37.538;2022-08-19T03:51:35;14.18;;;3.58;;
34535;SDS011;20779;55.596;37.538;2022-08-19T03:54:05;7.38;;;3.33;;
34535;SDS011;20779;55.596;37.538;2022-08-19T03:56:33;11.25;;;4.18;;
34535;SDS011;20779;55.596;37.538;2022-08-19T03:59:03;12.90;;;4.10;;
34535;SDS011;20779;55.596;37.538;2022-08-19T04:01:32;9.55;;;4.00;;
34535;SDS011;20779;55.596;37.538;2022-08-19T04:04:00;10.30;;;3.42;;
34535;SDS011;20779;55.596;37.538;2022-08-19T04:06:30;11.13;;;4.00;;
34535;SDS011;20779;55.596;37.538;2022-08-19T04:09:00;10.82;;;3.65;;
34535;SDS011;20779;55.596;37.538;2022-08-19T04:11:31;10.30;;;3.63;;
34535;SDS011;20779;55.596;37.538;2022-08-19T04:14:05;13.27;;;3.78;;
34535;SDS011;20779;55.596;37.538;2022-08-19T04:16:33;10.50;;;4.10;;
34535;SDS011;20779;55.596;37.538;2022-08-19T04:19:00;11.45;;;4.00;;
34535;SDS011;20779;55.596;37.538;2022-08-19T04:21:29;8.95;;;3.50;;
34535;SDS011;20779;55.596;37.538;2022-08-19T04:23:56;14.38;;;4.00;;
34535;SDS011;20779;55.596;37.538;2022-08-19T04:26:25;14.77;;;4.07;;
34535;SDS011;20779;55.596;37.538;2022-08-19T04:28:54;11.32;;;4.18;;
34535;SDS011;20779;55.596;37.538;2022-08-19T04:31:21;8.38;;;3.72;;
34535;SDS011;20779;55.596;37.538;2022-08-19T04:33:55;12.20;;;3.78;;
34535;SDS011;20779;55.596;37.538;2022-08-19T04:36:25;12.85;;;4.05;;
34535;SDS011;20779;55.596;37.538;2022-08-19T04:38:55;8.13;;;4.33;;
34535;SDS011;20779;55.596;37.538;2022-08-19T04:41:25;7.10;;;3.40;;
34535;SDS011;20779;55.596;37.538;2022-08-19T04:44:11;11.02;;;4.28;;
34535;SDS011;20779;55.596;37.538;2022-08-19T04:46:38;7.40;;;3.75;;
34535;SDS011;20779;55.596;37.538;2022-08-19T04:49:05;9.02;;;4.22;;
34535;SDS011;20779;55.596;37.538;2022-08-19T04:51:33;12.60;;;4.00;;
34535;SDS011;20779;55.596;37.538;2022-08-19T04:54:01;9.48;;;3.65;;
34535;SDS011;20779;55.596;37.538;2022-08-19T04:56:28;10.18;;;4.03;;
34535;SDS011;20779;55.596;37.538;2022-08-19T04:58:55;14.00;;;3.60;;
34535;SDS011;20779;55.596;37.538;2022-08-19T05:01:26;8.68;;;3.88;;
34535;SDS011;20779;55.596;37.538;2022-08-19T05:03:55;10.98;;;4.07;;
34535;SDS011;20779;55.596;37.538;2022-08-19T05:06:22;9.23;;;3.55;;
34535;SDS011;20779;55.596;37.538;2022-08-19T05:08:49;13.43;;;4.07;;
34535;SDS011;20779;55.596;37.538;2022-08-19T05:11:17;10.55;;;3.40;;
34535;SDS011;20779;55.596;37.538;2022-08-19T05:13:48;8.88;;;3.78;;
34535;SDS011;20779;55.596;37.538;2022-08-19T05:16:15;8.75;;;3.58;;
34535;SDS011;20779;55.596;37.538;2022-08-19T05:18:44;12.35;;;3.67;;
34535;SDS011;20779;55.596;37.538;2022-08-19T05:21:29;14.10;;;4.47;;
34535;SDS011;20779;55.596;37.538;2022-08-19T05:24:15;9.90;;;3.55;;
34535;SDS011;20779;55.596;37.538;2022-08-19T05:26:43;13.93;;;3.45;;
34535;SDS011;20779;55.596;37.538;2022-08-19T05:29:14;11.82;;;3.22;;
34535;SDS011;20779;55.596;37.538;2022-08-19T05:31:42;10.80;;;3.97;;
34535;SDS011;20779;55.596;37.538;2022-08-19T05:34:09;11.10;;;3.53;;
34535;SDS011;20779;55.596;37.538;2022-08-19T05:36:38;10.10;;;3.55;;
34535;SDS011;20779;55.596;37.538;2022-08-19T05:39:12;7.70;;;3.20;;
34535;SDS011;20779;55.596;37.538;2022-08-19T05:41:43;9.57;;;3.70;;
34535;SDS011;20779;55.596;37.538;2022-08-19T05:44:17;8.10;;;3.75;;
34535;SDS011;20779;55.596;37.538;2022-08-19T05:46:45;7.15;;;3.45;;
34535;SDS011;20779;55.596;37.538;2022-08-19T05:49:13;12.43;;;3.65;;
34535;SDS011;20779;55.596;37.538;2022-08-19T05:51:41;11.15;;;4.20;;
34535;SDS011;20779;55.596;37.538;2022-08-19T05:54:07;8.50;;;4.10;;
34535;SDS011;20779;55.596;37.538;2022-08-19T05:56:36;9.35;;;3.78;;
34535;SDS011;20779;55.596;37.538;2022-08-19T05:59:04;15.20;;;3.92;;
34535;SDS011;20779;55.596;37.538;2022-08-19T06:01:34;9.43;;;4.53;;
34535;SDS011;20779;55.596;37.538;2022-08-19T06:04:04;9.13;;;3.95;;
34535;SDS011;20779;55.596;37.538;2022-08-19T06:06:32;11.35;;;4.47;;
34535;SDS011;20779;55.596;37.538;2022-08-19T06:09:00;16.17;;;4.90;;
34535;SDS011;20779;55.596;37.538;2022-08-19T06:11:35;12.23;;;4.53;;
34535;SDS011;20779;55.596;37.538;2022-08-19T06:14:21;17.05;;;4.90;;
34535;SDS011;20779;55.596;37.538;2022-08-19T06:16:55;8.93;;;4.03;;
34535;SDS011;20779;55.596;37.538;2022-08-19T06:19:23;11.73;;;4.47;;
34535;SDS011;20779;55.596;37.538;2022-08-19T06:21:50;12.98;;;4.50;;
34535;SDS011;20779;55.596;37.538;2022-08-19T06:24:19;11.68;;;5.40;;
34535;SDS011;20779;55.596;37.538;2022-08-19T06:26:51;17.20;;;4.80;;
34535;SDS011;20779;55.596;37.538;2022-08-19T06:29:21;21.35;;;6.03;;
34535;SDS011;20779;55.596;37.538;2022-08-19T06:31:50;26.33;;;4.97;;
34535;SDS011;20779;55.596;37.538;2022-08-19T06:34:19;11.82;;;4.45;;
34535;SDS011;20779;55.596;37.538;2022-08-19T06:36:49;15.85;;;5.68;;
34535;SDS011;20779;55.596;37.538;2022-08-19T06:57:28;15.67;;;4.60;;
34535;SDS011;20779;55.596;37.538;2022-08-19T06:59:58;9.45;;;4.93;;
34535;SDS011;20779;55.596;37.538;2022-08-19T07:02:25;12.40;;;4.07;;
34535;SDS011;20779;55.596;37.538;2022-08-19T07:04:52;16.48;;;4.25;;
34535;SDS011;20779;55.596;37.538;2022-08-19T07:07:19;8.48;;;3.78;;
34535;SDS011;20779;55.596;37.538;2022-08-19T07:09:48;8.63;;;3.90;;
34535;SDS011;20779;55.596;37.538;2022-08-19T07:12:15;10.85;;;4.13;;
34535;SDS011;20779;55.596;37.538;2022-08-19T07:14:42;9.70;;;4.35;;
34535;SDS011;20779;55.596;37.538;2022-08-19T07:17:11;11.45;;;4.90;;
34535;SDS011;20779;55.596;37.538;2022-08-19T07:19:38;9.68;;;4.00;;
34535;SDS011;20779;55.596;37.538;2022-08-19T07:22:06;9.25;;;3.83;;
34535;SDS011;20779;55.596;37.538;2022-08-19T07:24:35;12.13;;;4.45;;
34535;SDS011;20779;55.596;37.538;2022-08-19T07:27:03;7.97;;;4.05;;
34535;SDS011;20779;55.596;37.538;2022-08-19T07:29:31;9.57;;;4.38;;
34535;SDS011;20779;55.596;37.538;2022-08-19T07:32:00;7.90;;;3.72;;
34535;SDS011;20779;55.596;37.538;2022-08-19T07:34:29;11.85;;;3.85;;
34535;SDS011;20779;55.596;37.538;2022-08-19T07:36:56;7.88;;;3.47;;
34535;SDS011;20779;55.596;37.538;2022-08-19T07:39:24;8.80;;;3.42;;
34535;SDS011;20779;55.596;37.538;2022-08-19T07:41:56;10.98;;;3.70;;
34535;SDS011;20779;55.596;37.538;2022-08-19T07:44:25;16.58;;;3.97;;
34535;SDS011;20779;55.596;37.538;2022-08-19T07:46:53;10.43;;;3.40;;
34535;SDS011;20779;55.596;37.538;2022-08-19T07:49:22;5.32;;;3.33;;
34535;SDS011;20779;55.596;37.538;2022-08-19T07:51:53;4.68;;;3.50;;
34535;SDS011;20779;55.596;37.538;2022-08-19T07:54:25;11.52;;;4.43;;
34535;SDS011;20779;55.596;37.538;2022-08-19T07:56:53;6.10;;;3.50;;
34535;SDS011;20779;55.596;37.538;2022-08-19T07:59:20;10.40;;;3.55;;
34535;SDS011;20779;55.596;37.538;2022-08-19T08:01:47;11.48;;;3.60;;
34535;SDS011;20779;55.596;37.538;2022-08-19T08:04:15;6.18;;;2.88;;
34535;SDS011;20779;55.596;37.538;2022-08-19T08:07:01;11.60;;;3.22;;
34535;SDS011;20779;55.596;37.538;2022-08-19T08:09:46;8.85;;;3.53;;
34535;SDS011;20779;55.596;37.538;2022-08-19T08:12:19;7.15;;;3.40;;
34535;SDS011;20779;55.596;37.538;2022-08-19T08:14:51;10.48;;;3.15;;
34535;SDS011;20779;55.596;37.538;2022-08-19T08:17:22;6.60;;;2.80;;
34535;SDS011;20779;55.596;37.538;2022-08-19T08:19:51;8.30;;;3.38;;
34535;SDS011;20779;55.596;37.538;2022-08-19T08:22:20;8.85;;;2.70;;
34535;SDS011;20779;55.596;37.538;2022-08-19T08:25:15;7.85;;;2.90;;
34535;SDS011;20779;55.596;37.538;2022-08-19T08:27:46;6.88;;;3.53;;
34535;SDS011;20779;55.596;37.538;2022-08-19T08:30:15;7.63;;;2.90;;
34535;SDS011;20779;55.596;37.538;2022-08-19T08:32:47;10.52;;;3.10;;
34535;SDS011;20779;55.596;37.538;2022-08-19T08:35:15;9.07;;;3.05;;
34535;SDS011;20779;55.596;37.538;2022-08-19T08:46:03;11.05;;;3.13;;
34535;SDS011;20779;55.596;37.538;2022-08-19T08:51:24;10.35;;;2.75;;
34535;SDS011;20779;55.596;37.538;2022-08-19T08:54:06;7.97;;;2.85;;
34535;SDS011;20779;55.596;37.538;2022-08-19T08:56:39;8.68;;;2.60;;
34535;SDS011;20779;55.596;37.538;2022-08-19T08:59:30;10.48;;;3.05;;
34535;SDS011;20779;55.596;37.538;2022-08-19T09:02:01;3.25;;;2.42;;
34535;SDS011;20779;55.596;37.538;2022-08-19T09:04:27;7.07;;;2.40;;
34535;SDS011;20779;55.596;37.538;2022-08-19T09:06:55;10.48;;;2.75;;
34535;SDS011;20779;55.596;37.538;2022-08-19T09:09:50;6.97;;;2.60;;
34535;SDS011;20779;55.596;37.538;2022-08-19T09:15:09;7.05;;;2.67;;
34535;SDS011;20779;55.596;37.538;2022-08-19T09:17:39;8.30;;;2.85;;
34535;SDS011;20779;55.596;37.538;2022-08-19T09:20:18;8.75;;;2.85;;
34535;SDS011;20779;55.596;37.538;2022-08-19T09:22:47;8.93;;;2.60;;
34535;SDS011;20779;55.596;37.538;2022-08-19T09:25:18;9.15;;;2.88;;
34535;SDS011;20779;55.596;37.538;2022-08-19T09:27:50;10.68;;;2.60;;
34535;SDS011;20779;55.596;37.538;2022-08-19T09:30:28;7.40;;;2.90;;
34535;SDS011;20779;55.596;37.538;2022-08-19T09:32:57;7.05;;;2.72;;
34535;SDS011;20779;55.596;37.538;2022-08-19T09:35:25;20.10;;;2.88;;
34535;SDS011;20779;55.596;37.538;2022-08-19T09:37:54;5.38;;;2.40;;
34535;SDS011;20779;55.596;37.538;2022-08-19T09:40:22;6.97;;;3.17;;
34535;SDS011;20779;55.596;37.538;2022-08-19T09:42:49;7.43;;;2.45;;
34535;SDS011;20779;55.596;37.538;2022-08-19T09:45:16;5.13;;;2.22;;
34535;SDS011;20779;55.596;37.538;2022-08-19T09:47:51;6.80;;;2.45;;
34535;SDS011;20779;55.596;37.538;2022-08-19T09:50:18;5.15;;;2.90;;
34535;SDS011;20779;55.596;37.538;2022-08-19T09:52:45;6.28;;;2.78;;
34535;SDS011;20779;55.596;37.538;2022-08-19T09:55:12;10.25;;;3.15;;
34535;SDS011;20779;55.596;37.538;2022-08-19T09:57:41;13.30;;;3.22;;
34535;SDS011;20779;55.596;37.538;2022-08-19T10:00:08;6.35;;;2.75;;
34535;SDS011;20779;55.596;37.538;2022-08-19T10:02:35;8.68;;;2.55;;
34535;SDS011;20779;55.596;37.538;2022-08-19T10:05:02;7.47;;;2.50;;
34535;SDS011;20779;55.596;37.538;2022-08-19T10:07:47;9.18;;;2.58;;
34535;SDS011;20779;55.596;37.538;2022-08-19T10:10:14;11.75;;;2.75;;
34535;SDS011;20779;55.596;37.538;2022-08-19T10:12:41;13.82;;;2.65;;
34535;SDS011;20779;55.596;37.538;2022-08-19T10:17:38;6.30;;;2.13;;
34535;SDS011;20779;55.596;37.538;2022-08-19T10:20:05;7.65;;;2.95;;
34535;SDS011;20779;55.596;37.538;2022-08-19T10:22:32;7.65;;;1.77;;
34535;SDS011;20779;55.596;37.538;2022-08-19T10:25:00;8.65;;;1.85;;
34535;SDS011;20779;55.596;37.538;2022-08-19T10:27:28;5.07;;;2.20;;
34535;SDS011;20779;55.596;37.538;2022-08-19T10:29:56;8.45;;;2.55;;
34535;SDS011;20779;55.596;37.538;2022-08-19T10:32:22;8.82;;;2.45;;
34535;SDS011;20779;55.596;37.538;2022-08-19T10:34:50;10.15;;;2.30;;
34535;SDS011;20779;55.596;37.538;2022-08-19T10:37:17;9.57;;;2.55;;
34535;SDS011;20779;55.596;37.538;2022-08-19T10:39:45;8.07;;;2.03;;
34535;SDS011;20779;55.596;37.538;2022-08-19T10:42:13;11.35;;;2.10;;
34535;SDS011;20779;55.596;37.538;2022-08-19T10:44:41;9.95;;;2.40;;
34535;SDS011;20779;55.596;37.538;2022-08-19T10:47:07;7.55;;;2.63;;
34535;SDS011;20779;55.596;37.538;2022-08-19T10:49:34;13.48;;;2.50;;
34535;SDS011;20779;55.596;37.538;2022-08-19T10:52:21;10.25;;;2.25;;
34535;SDS011;20779;55.596;37.538;2022-08-19T10:55:00;6.43;;;2.08;;
34535;SDS011;20779;55.596;37.538;2022-08-19T10:57:50;6.28;;;2.17;;
34535;SDS011;20779;55.596;37.538;2022-08-19T11:00:18;10.52;;;2.60;;
34535;SDS011;20779;55.596;37.538;2022-08-19T11:02:46;6.28;;;2.03;;
34535;SDS011;20779;55.596;37.538;2022-08-19T11:05:13;6.72;;;2.20;;
34535;SDS011;20779;55.596;37.538;2022-08-19T11:07:40;6.45;;;2.25;;
34535;SDS011;20779;55.596;37.538;2022-08-19T11:10:08;3.75;;;2.30;;
34535;SDS011;20779;55.596;37.538;2022-08-19T11:12:37;6.78;;;2.10;;
34535;SDS011;20779;55.596;37.538;2022-08-19T11:15:08;5.35;;;2.50;;
34535;SDS011;20779;55.596;37.538;2022-08-19T11:17:39;10.05;;;2.85;;
34535;SDS011;20779;55.596;37.538;2022-08-19T11:20:09;7.55;;;2.60;;
34535;SDS011;20779;55.596;37.538;2022-08-19T11:22:37;6.70;;;2.10;;
34535;SDS011;20779;55.596;37.538;2022-08-19T11:25:05;11.98;;;2.42;;
34535;SDS011;20779;55.596;37.538;2022-08-19T11:27:32;4.53;;;2.50;;
34535;SDS011;20779;55.596;37.538;2022-08-19T11:29:59;7.13;;;2.33;;
34535;SDS011;20779;55.596;37.538;2022-08-19T11:32:25;5.72;;;2.28;;
34535;SDS011;20779;55.596;37.538;2022-08-19T11:34:52;11.00;;;2.40;;
34535;SDS011;20779;55.596;37.538;2022-08-19T11:37:19;4.65;;;2.15;;
34535;SDS011;20779;55.596;37.538;2022-08-19T11:39:46;4.18;;;2.47;;
34535;SDS011;20779;55.596;37.538;2022-08-19T11:42:12;9.23;;;2.85;;
34535;SDS011;20779;55.596;37.538;2022-08-19T11:44:57;5.55;;;3.05;;
34535;SDS011;20779;55.596;37.538;2022-08-19T11:47:24;7.50;;;2.55;;
34535;SDS011;20779;55.596;37.538;2022-08-19T11:49:51;11.80;;;2.75;;
34535;SDS011;20779;55.596;37.538;2022-08-19T11:52:18;8.45;;;2.38;;
34535;SDS011;20779;55.596;37.538;2022-08-19T11:54:45;3.65;;;2.45;;
34535;SDS011;20779;55.596;37.538;2022-08-19T11:57:11;7.07;;;2.33;;
34535;SDS011;20779;55.596;37.538;2022-08-19T11:59:39;7.55;;;2.70;;
34535;SDS011;20779;55.596;37.538;2022-08-19T12:02:06;6.90;;;2.50;;
34535;SDS011;20779;55.596;37.538;2022-08-19T12:04:33;9.07;;;2.90;;
34535;SDS011;20779;55.596;37.538;2022-08-19T12:06:59;8.15;;;2.35;;
34535;SDS011;20779;55.596;37.538;2022-08-19T12:09:27;6.93;;;2.78;;
34535;SDS011;20779;55.596;37.538;2022-08-19T12:11:53;9.00;;;2.97;;
34535;SDS011;20779;55.596;37.538;2022-08-19T12:14:20;7.10;;;2.70;;
34535;SDS011;20779;55.596;37.538;2022-08-19T12:16:47;7.05;;;2.53;;
34535;SDS011;20779;55.596;37.538;2022-08-19T12:19:13;4.95;;;2.85;;
34535;SDS011;20779;55.596;37.538;2022-08-19T12:21:40;14.63;;;3.00;;
34535;SDS011;20779;55.596;37.538;2022-08-19T12:24:07;10.70;;;2.78;;
34535;SDS011;20779;55.596;37.538;2022-08-19T12:26:34;12.52;;;2.75;;
34535;SDS011;20779;55.596;37.538;2022-08-19T12:29:01;7.43;;;3.30;;
34535;SDS011;20779;55.596;37.538;2022-08-19T12:31:28;7.53;;;3.00;;
34535;SDS011;20779;55.596;37.538;2022-08-19T12:33:55;9.90;;;2.90;;
34535;SDS011;20779;55.596;37.538;2022-08-19T12:36:22;7.68;;;2.55;;
34535;SDS011;20779;55.596;37.538;2022-08-19T12:38:50;10.00;;;3.13;;
34535;SDS011;20779;55.596;37.538;2022-08-19T12:41:17;4.82;;;2.42;;
34535;SDS011;20779;55.596;37.538;2022-08-19T12:43:47;12.35;;;2.58;;
34535;SDS011;20779;55.596;37.538;2022-08-19T12:46:15;5.30;;;2.60;;
34535;SDS011;20779;55.596;37.538;2022-08-19T12:48:41;8.27;;;2.75;;
34535;SDS011;20779;55.596;37.538;2022-08-19T12:51:11;6.90;;;3.00;;
34535;SDS011;20779;55.596;37.538;2022-08-19T12:56:08;12.40;;;3.80;;
34535;SDS011;20779;55.596;37.538;2022-08-19T12:58:36;8.45;;;2.70;;
34535;SDS011;20779;55.596;37.538;2022-08-19T13:01:07;10.10;;;3.10;;
34535;SDS011;20779;55.596;37.538;2022-08-19T13:03:39;12.88;;;3.35;;
34535;SDS011;20779;55.596;37.538;2022-08-19T13:06:07;9.90;;;3.55;;
34535;SDS011;20779;55.596;37.538;2022-08-19T13:08:34;8.90;;;3.03;;
34535;SDS011;20779;55.596;37.538;2022-08-19T13:11:08;8.60;;;3.05;;
34535;SDS011;20779;55.596;37.538;2022-08-19T13:13:40;7.22;;;3.15;;
34535;SDS011;20779;55.596;37.538;2022-08-19T13:16:11;9.65;;;3.58;;
34535;SDS011;20779;55.596;37.538;2022-08-19T13:18:39;11.52;;;2.75;;
34535;SDS011;20779;55.596;37.538;2022-08-19T13:21:08;12.63;;;2.85;;
34535;SDS011;20779;55.596;37.538;2022-08-19T13:23:38;13.13;;;3.08;;
34535;SDS011;20779;55.596;37.538;2022-08-19T13:26:06;12.27;;;3.58;;
34535;SDS011;20779;55.596;37.538;2022-08-19T13:28:34;8.57;;;4.22;;
34535;SDS011;20779;55.596;37.538;2022-08-19T13:31:20;15.02;;;4.53;;
34535;SDS011;20779;55.596;37.538;2022-08-19T13:34:07;10.57;;;4.30;;
34535;SDS011;20779;55.596;37.538;2022-08-19T13:36:34;11.25;;;4.00;;
34535;SDS011;20779;55.596;37.538;2022-08-19T13:39:02;6.57;;;3.67;;
34535;SDS011;20779;55.596;37.538;2022-08-19T13:41:29;10.43;;;4.25;;
34535;SDS011;20779;55.596;37.538;2022-08-19T13:43:56;14.15;;;4.50;;
34535;SDS011;20779;55.596;37.538;2022-08-19T13:46:22;13.20;;;5.10;;
34535;SDS011;20779;55.596;37.538;2022-08-19T13:48:49;13.00;;;6.47;;
34535;SDS011;20779;55.596;37.538;2022-08-19T13:51:16;13.18;;;8.45;;
34535;SDS011;20779;55.596;37.538;2022-08-19T13:53:43;13.73;;;8.73;;
34535;SDS011;20779;55.596;37.538;2022-08-19T13:56:11;17.88;;;9.00;;
34535;SDS011;20779;55.596;37.538;2022-08-19T13:58:40;24.90;;;9.50;;
34535;SDS011;20779;55.596;37.538;2022-08-19T14:01:07;14.88;;;10.88;;
34535;SDS011;20779;55.596;37.538;2022-08-19T14:03:34;12.27;;;9.43;;
34535;SDS011;20779;55.596;37.538;2022-08-19T14:06:01;14.27;;;9.70;;
34535;SDS011;20779;55.596;37.538;2022-08-19T14:08:28;13.18;;;9.32;;
34535;SDS011;20779;55.596;37.538;2022-08-19T14:10:57;19.33;;;9.55;;
34535;SDS011;20779;55.596;37.538;2022-08-19T14:13:24;17.95;;;10.68;;
34535;SDS011;20779;55.596;37.538;2022-08-19T14:15:51;13.82;;;8.00;;
34535;SDS011;20779;55.596;37.538;2022-08-19T14:18:18;19.05;;;7.82;;
34535;SDS011;20779;55.596;37.538;2022-08-19T14:20:45;13.00;;;8.93;;
34535;SDS011;20779;55.596;37.538;2022-08-19T14:23:11;20.20;;;11.27;;
34535;SDS011;20779;55.596;37.538;2022-08-19T14:25:38;20.00;;;12.07;;
34535;SDS011;20779;55.596;37.538;2022-08-19T14:28:05;17.15;;;11.23;;
34535;SDS011;20779;55.596;37.538;2022-08-19T14:30:33;19.50;;;10.38;;
34535;SDS011;20779;55.596;37.538;2022-08-19T14:33:02;16.92;;;8.13;;
34535;SDS011;20779;55.596;37.538;2022-08-19T14:35:31;14.98;;;8.40;;
34535;SDS011;20779;55.596;37.538;2022-08-19T14:38:02;16.67;;;8.70;;
34535;SDS011;20779;55.596;37.538;2022-08-19T14:40:30;21.40;;;9.23;;
34535;SDS011;20779;55.596;37.538;2022-08-19T14:42:58;15.20;;;8.90;;
34535;SDS011;20779;55.596;37.538;2022-08-19T14:45:29;19.50;;;8.18;;
34535;SDS011;20779;55.596;37.538;2022-08-19T14:48:02;13.95;;;8.38;;
34535;SDS011;20779;55.596;37.538;2022-08-19T14:50:30;17.70;;;7.90;;
34535;SDS011;20779;55.596;37.538;2022-08-19T14:53:01;24.90;;;10.35;;
34535;SDS011;20779;55.596;37.538;2022-08-19T14:55:33;18.45;;;8.45;;
34535;SDS011;20779;55.596;37.538;2022-08-19T14:58:00;13.20;;;7.63;;
34535;SDS011;20779;55.596;37.538;2022-08-19T15:00:27;16.65;;;7.18;;
34535;SDS011;20779;55.596;37.538;2022-08-19T15:02:53;12.35;;;7.43;;
34535;SDS011;20779;55.596;37.538;2022-08-19T15:05:20;17.00;;;7.25;;
34535;SDS011;20779;55.596;37.538;2022-08-19T15:07:46;14.48;;;6.30;;
34535;SDS011;20779;55.596;37.538;2022-08-19T15:10:13;10.52;;;6.40;;
34535;SDS011;20779;55.596;37.538;2022-08-19T15:12:40;13.98;;;5.68;;
34535;SDS011;20779;55.596;37.538;2022-08-19T15:15:12;11.70;;;5.70;;
34535;SDS011;20779;55.596;37.538;2022-08-19T15:17:42;15.25;;;5.78;;
34535;SDS011;20779;55.596;37.538;2022-08-19T15:20:11;11.90;;;5.38;;
34535;SDS011;20779;55.596;37.538;2022-08-19T15:22:46;8.60;;;4.60;;
34535;SDS011;20779;55.596;37.538;2022-08-19T15:25:14;10.45;;;4.53;;